Airfield :
LOGIN :

Register | Disclaimer

   EN    FR    IT 

 










Legend :    VFR   Marginal VFR   IFR   Intensive IFR   Very Intensive IFR
Visi :
Ceiling :
>= 8 km
>= 3000ft
5 to 8 km
1000 to 3000 ft
1500m to 5 km
500 to 1000 ft
800 to 1500m
200 to 500 ft
< 800m
< 200 ft
Symbols :   Thunderstorms  Fog  Heavy snow  Heavy precipitations  Wind > 20 kt
SIGMETs :     Misc.  Thunderstorms  Icing  Turbulence  Mountain Waves  Volcanic Ashes







- Airport Elevation : 357 ft
- IATA code : TUF
- Download approach charts


LFOT - Tours

CURRENT METAR :
  • 170300Z AUTO 13004KT CAVOK 05/M00 Q1021 TEMPO 0800 BCFG

EXPIRED METARs :
  • 170230Z AUTO 13005KT CAVOK 05/M00 Q1021 TEMPO 0800 BCFG
  • 170200Z AUTO 13006KT CAVOK 06/00 Q1021 TEMPO 0800 BCFG
  • 170130Z AUTO 13005KT CAVOK 06/00 Q1021 TEMPO 0800 BCFG
  • 170100Z AUTO 13005KT CAVOK 07/00 Q1022 TEMPO 3000 BR
  • 170030Z AUTO 13005KT CAVOK 07/01 Q1022 TEMPO 3000 BR

TAF TAF LFOT
Valid from the 17 at 00:00 until the 18 at 00:00 UTC


162300Z 1700/1724 18004KT CAVOK
TEMPO 1702/1708 3000 BR
PROB30
TEMPO 1703/1707 0800 BCFG
BECMG 1708/1710 20010KT CAVOK
No reported NOTAMs for that airfield.



MET'MAP, your aeronautical weather chart ! - Copyright ORBIFLY December 2007 - Disclaimer

ORBIFLY MET'MAP TEAM :

Programming & Development : Alexandra Zaïnal
Concept & Development : Baudouin d'Aumeries
Co-Development & Prog : Marc-Olivier Méhu
Technical & hardware support : Manuel Goepfert

Contact : metmap@orbifly.com




SOURCES & CREDITS :

   NOAA